Time;durP1;ratioP1;P1;durP2;ratioP2;P2;SDS_P1;SDS_P2;PMS_P1;PMS_P2;Temp;Humidity;BMP_temperature;BMP_pressure;BME280_temperature;BME280_humidity;BME280_pressure;Samples;Min_cycle;Max_cycle;Signal;HPM_P1;HPM_P2
2023/09/03 00:01:01;;;;;;;4.77;3.90;;;21.80;99.90;;;;;;5105873;28;20693;-81
2023/09/03 00:03:27;;;;;;;4.77;3.53;;;21.90;99.90;;;;;;5121501;28;20230;-79
2023/09/03 00:05:54;;;;;;;4.37;3.90;;;21.80;99.90;;;;;;5106083;28;20562;-81
2023/09/03 00:08:21;;;;;;;5.20;4.17;;;21.80;99.90;;;;;;5105140;28;20190;-77
2023/09/03 00:10:54;;;;;;;4.20;3.90;;;21.80;99.90;;;;;;5106094;28;20788;-78
2023/09/03 00:13:20;;;;;;;4.30;3.90;;;21.70;99.90;;;;;;5121929;28;20447;-78
2023/09/03 00:15:46;;;;;;;6.00;4.20;;;21.60;99.90;;;;;;5120925;28;20471;-82
2023/09/03 00:18:14;;;;;;;5.40;4.50;;;21.60;99.90;;;;;;5121778;28;20897;-78
2023/09/03 00:20:40;;;;;;;4.70;4.20;;;21.50;99.90;;;;;;5121090;28;20496;-81
2023/09/03 00:23:05;;;;;;;5.33;3.47;;;21.50;99.90;;;;;;5105811;28;20464;-78
2023/09/03 00:25:36;;;;;;;4.10;3.70;;;21.50;99.90;;;;;;5105839;28;20512;-81
2023/09/03 00:28:02;;;;;;;5.47;4.13;;;21.50;99.90;;;;;;5120979;28;20183;-78
2023/09/03 00:30:28;;;;;;;4.20;3.77;;;21.50;99.90;;;;;;5121184;28;20915;-81
2023/09/03 00:32:53;;;;;;;4.53;3.90;;;21.50;99.90;;;;;;5106018;28;20482;-79
2023/09/03 00:35:20;;;;;;;4.47;4.07;;;21.40;99.90;;;;;;5105653;28;20202;-78
2023/09/03 00:37:46;;;;;;;4.53;3.70;;;21.40;99.90;;;;;;5121276;28;20225;-81
2023/09/03 00:40:12;;;;;;;4.20;3.80;;;21.40;99.90;;;;;;5121137;28;20517;-82
2023/09/03 00:42:37;;;;;;;6.53;4.93;;;21.40;99.90;;;;;;5121627;28;20789;-79
2023/09/03 00:45:03;;;;;;;4.13;3.50;;;21.30;99.90;;;;;;5107739;28;20384;-81
2023/09/03 00:47:30;;;;;;;5.17;3.93;;;21.30;99.90;;;;;;5109467;28;20258;-80
2023/09/03 00:49:56;;;;;;;4.90;4.13;;;21.30;99.90;;;;;;5125177;27;20479;-82
2023/09/03 00:52:23;;;;;;;4.63;4.23;;;21.30;99.90;;;;;;5125007;27;20431;-78
2023/09/03 00:54:48;;;;;;;4.50;4.10;;;21.20;99.90;;;;;;5124942;27;20582;-78
2023/09/03 00:57:14;;;;;;;4.30;3.47;;;21.20;99.90;;;;;;5124796;27;20409;-79
2023/09/03 00:59:42;;;;;;;4.33;3.93;;;21.20;99.90;;;;;;5125155;27;20199;-81
2023/09/03 01:02:12;;;;;;;4.50;4.03;;;21.20;99.90;;;;;;5109221;28;20172;-77
2023/09/03 01:04:39;;;;;;;4.27;3.97;;;21.20;99.90;;;;;;5125224;27;20562;-82
2023/09/03 01:07:06;;;;;;;4.57;4.00;;;21.20;99.90;;;;;;5108265;28;20407;-81
2023/09/03 01:09:31;;;;;;;4.30;3.90;;;21.20;99.90;;;;;;5124293;27;20959;-81
2023/09/03 01:12:20;;;;;;;4.13;3.80;;;21.10;99.90;;;;;;5108937;28;20400;-79
2023/09/03 01:15:23;;;;;;;4.70;4.20;;;21.10;99.90;;;;;;5124270;27;20224;-82
2023/09/03 01:17:58;;;;;;;4.87;4.37;;;21.10;99.90;;;;;;5108884;28;20434;-81
2023/09/03 01:20:33;;;;;;;4.07;3.73;;;21.10;99.90;;;;;;5124441;27;20463;-81
2023/09/03 01:23:37;;;;;;;4.20;3.80;;;21.00;99.90;;;;;;5124595;27;20403;-81
2023/09/03 01:26:24;;;;;;;4.23;3.60;;;21.00;99.90;;;;;;5124097;27;20507;-78
2023/09/03 01:28:50;;;;;;;4.50;3.73;;;21.00;99.90;;;;;;5124146;27;20412;-82
2023/09/03 01:31:17;;;;;;;4.10;3.63;;;21.00;99.90;;;;;;5108321;28;20434;-82
2023/09/03 01:33:45;;;;;;;4.27;3.63;;;21.00;99.90;;;;;;5124443;27;20412;-78
2023/09/03 01:36:12;;;;;;;4.97;4.50;;;21.00;99.90;;;;;;5108313;28;20443;-78
2023/09/03 01:38:39;;;;;;;4.50;4.10;;;20.90;99.90;;;;;;5124249;27;20499;-78
2023/09/03 01:41:06;;;;;;;4.80;4.30;;;20.90;99.90;;;;;;5123932;27;20999;-81
2023/09/03 01:43:32;;;;;;;5.17;4.67;;;20.80;99.90;;;;;;5108449;28;20451;-81
2023/09/03 01:46:06;;;;;;;4.83;4.43;;;20.80;99.90;;;;;;5123577;27;20436;-78
2023/09/03 01:49:16;;;;;;;5.60;4.27;;;20.80;99.90;;;;;;5124338;27;20415;-78
2023/09/03 01:52:01;;;;;;;5.20;4.27;;;20.70;99.90;;;;;;5108198;28;20495;-81
2023/09/03 01:54:30;;;;;;;4.40;4.00;;;20.60;99.90;;;;;;5124116;27;20436;-77
2023/09/03 01:57:07;;;;;;;4.43;4.03;;;20.60;99.90;;;;;;5107008;27;20415;-81
2023/09/03 01:59:43;;;;;;;4.20;3.80;;;20.50;99.90;;;;;;5108155;28;20860;-82
2023/09/03 02:02:11;;;;;;;4.67;3.77;;;20.50;99.90;;;;;;5123522;27;20924;-82
2023/09/03 02:04:36;;;;;;;5.47;4.07;;;20.50;99.90;;;;;;5108015;28;20480;-82
2023/09/03 02:07:02;;;;;;;5.60;4.57;;;20.50;99.90;;;;;;5107529;28;20983;-81
2023/09/03 02:09:28;;;;;;;4.97;3.70;;;20.50;99.90;;;;;;5107044;28;20171;-78
2023/09/03 02:11:53;;;;;;;4.63;4.20;;;20.50;99.90;;;;;;5107837;28;20945;-79
2023/09/03 02:14:19;;;;;;;4.60;4.20;;;20.50;99.90;;;;;;5107825;27;20175;-79
2023/09/03 02:16:45;;;;;;;5.20;3.77;;;20.50;99.90;;;;;;5107372;28;20182;-82
2023/09/03 02:19:10;;;;;;;4.30;3.83;;;20.50;99.90;;;;;;5107691;28;20763;-79
2023/09/03 02:21:36;;;;;;;6.23;5.03;;;20.50;99.90;;;;;;5107540;28;20200;-82
2023/09/03 02:24:02;;;;;;;5.77;4.20;;;20.50;99.90;;;;;;5107515;28;20671;-82
2023/09/03 02:26:27;;;;;;;4.40;4.00;;;20.50;99.90;;;;;;5123031;27;20192;-78
2023/09/03 02:28:53;;;;;;;4.83;4.17;;;20.50;99.90;;;;;;5123188;27;20175;-78
2023/09/03 02:31:19;;;;;;;6.70;4.30;;;20.40;99.90;;;;;;5107569;28;20225;-78
2023/09/03 02:33:44;;;;;;;5.13;4.63;;;20.40;99.90;;;;;;5123161;27;20184;-82
2023/09/03 02:36:10;;;;;;;4.33;3.93;;;20.40;99.90;;;;;;5107323;28;20252;-79
2023/09/03 02:38:35;;;;;;;4.27;3.87;;;20.40;99.90;;;;;;5107071;28;20171;-82
2023/09/03 02:41:01;;;;;;;4.10;3.70;;;20.40;99.90;;;;;;5122651;27;20676;-82
2023/09/03 02:43:27;;;;;;;5.27;4.70;;;20.40;99.90;;;;;;5122985;27;20204;-80
2023/09/03 02:45:53;;;;;;;4.70;4.30;;;20.40;99.90;;;;;;5106890;28;20368;-81
2023/09/03 02:48:18;;;;;;;5.27;4.57;;;20.40;99.90;;;;;;5107315;27;20544;-80
2023/09/03 02:50:44;;;;;;;5.93;4.60;;;20.30;99.90;;;;;;5107191;28;20192;-79
2023/09/03 02:53:09;;;;;;;4.80;4.40;;;20.40;99.90;;;;;;5106990;28;20181;-78
2023/09/03 02:55:35;;;;;;;6.20;4.97;;;20.30;99.90;;;;;;5122427;27;20557;-82
2023/09/03 02:58:00;;;;;;;5.20;4.33;;;20.30;99.90;;;;;;5106797;28;20194;-78
2023/09/03 03:00:26;;;;;;;5.33;4.23;;;20.30;99.90;;;;;;5106938;28;20188;-78
2023/09/03 03:02:52;;;;;;;4.50;4.10;;;20.30;99.90;;;;;;5122577;27;20549;-82
2023/09/03 03:05:18;;;;;;;4.50;3.93;;;20.30;99.90;;;;;;5122359;27;20432;-79
2023/09/03 03:07:44;;;;;;;5.90;4.87;;;20.30;99.90;;;;;;5122309;27;20297;-81
2023/09/03 03:10:11;;;;;;;4.60;3.93;;;20.20;99.90;;;;;;5122438;27;20444;-82
2023/09/03 03:12:37;;;;;;;5.00;4.50;;;20.20;99.90;;;;;;5105888;28;20491;-81
2023/09/03 03:15:03;;;;;;;4.73;4.27;;;20.20;99.90;;;;;;5122462;27;21182;-81
2023/09/03 03:17:32;;;;;;;4.40;4.10;;;20.10;99.90;;;;;;5121643;27;20458;-81
2023/09/03 03:19:58;;;;;;;4.87;4.13;;;20.10;99.90;;;;;;5106486;28;20883;-79
2023/09/03 03:22:23;;;;;;;4.97;4.50;;;20.10;99.90;;;;;;5122161;27;20465;-81
2023/09/03 03:24:49;;;;;;;4.30;3.90;;;20.10;99.90;;;;;;5121952;27;20759;-82
2023/09/03 03:27:17;;;;;;;5.50;4.10;;;20.10;99.90;;;;;;5106209;28;20175;-82
2023/09/03 03:29:43;;;;;;;5.00;4.60;;;20.20;99.90;;;;;;5106238;28;20204;-79
2023/09/03 03:32:08;;;;;;;5.20;4.70;;;20.10;99.90;;;;;;5121854;27;20411;-82
2023/09/03 03:34:34;;;;;;;4.87;4.37;;;20.10;99.90;;;;;;5106413;28;20196;-78
2023/09/03 03:36:59;;;;;;;6.40;4.50;;;20.10;99.90;;;;;;5106063;28;20606;-81
2023/09/03 03:39:25;;;;;;;5.43;4.80;;;20.00;99.90;;;;;;5106378;28;20268;-81
2023/09/03 03:41:51;;;;;;;5.20;4.70;;;20.00;99.90;;;;;;5105904;28;20650;-81
2023/09/03 03:44:16;;;;;;;4.73;4.33;;;20.00;99.90;;;;;;5121747;27;20232;-82
2023/09/03 03:46:42;;;;;;;4.87;4.30;;;20.00;99.90;;;;;;5121835;27;20187;-78
2023/09/03 03:49:08;;;;;;;6.77;4.93;;;20.00;99.90;;;;;;5106076;28;20176;-79
2023/09/03 03:51:34;;;;;;;5.27;4.80;;;19.90;99.90;;;;;;5106084;28;20195;-78
2023/09/03 03:54:03;;;;;;;5.50;5.00;;;19.90;99.90;;;;;;5121532;27;20954;-78
2023/09/03 03:56:29;;;;;;;6.10;5.20;;;19.90;99.90;;;;;;5105840;28;20244;-81
2023/09/03 03:58:54;;;;;;;10.20;5.20;;;19.90;99.90;;;;;;5121626;27;20420;-78
2023/09/03 04:01:24;;;;;;;4.80;4.30;;;19.90;99.90;;;;;;5106004;28;20431;-78
2023/09/03 04:03:52;;;;;;;4.83;4.43;;;19.90;99.90;;;;;;5121404;27;20298;-81
2023/09/03 04:06:18;;;;;;;5.90;4.80;;;19.90;99.90;;;;;;5105764;28;20439;-81
2023/09/03 04:08:44;;;;;;;5.57;4.87;;;19.80;99.90;;;;;;5121668;28;20444;-82
2023/09/03 04:11:12;;;;;;;7.90;4.83;;;19.80;99.90;;;;;;5105473;28;20461;-81
2023/09/03 04:13:39;;;;;;;5.67;5.17;;;19.80;99.90;;;;;;5120991;28;20403;-79
2023/09/03 04:16:16;;;;;;;5.27;4.77;;;19.70;99.90;;;;;;5120803;28;20451;-82
2023/09/03 04:18:42;;;;;;;5.53;4.50;;;19.70;99.90;;;;;;5121732;27;20405;-80
2023/09/03 04:21:08;;;;;;;5.10;4.60;;;19.70;99.90;;;;;;5109656;28;21189;-81
2023/09/03 04:23:34;;;;;;;5.13;4.33;;;19.70;99.90;;;;;;5125362;27;20467;-81
2023/09/03 04:26:00;;;;;;;5.50;5.00;;;19.70;99.90;;;;;;5109645;28;20254;-81
2023/09/03 04:28:26;;;;;;;7.50;4.10;;;19.80;99.90;;;;;;5125634;27;20177;-78
2023/09/03 04:31:10;;;;;;;4.80;4.30;;;19.80;99.90;;;;;;5109735;28;20432;-78
2023/09/03 04:33:36;;;;;;;5.47;4.87;;;19.90;99.90;;;;;;5125525;27;20423;-78
2023/09/03 04:36:03;;;;;;;5.47;4.97;;;19.80;99.90;;;;;;5109531;28;20462;-82
2023/09/03 04:38:29;;;;;;;5.10;4.60;;;19.90;99.90;;;;;;5109627;28;20785;-78
2023/09/03 04:40:56;;;;;;;6.87;5.33;;;19.80;99.90;;;;;;5109301;28;20454;-82
2023/09/03 04:43:23;;;;;;;6.57;5.30;;;19.80;99.90;;;;;;5125357;27;20463;-77
2023/09/03 04:45:52;;;;;;;5.80;5.00;;;19.80;99.90;;;;;;5109713;28;20447;-82
2023/09/03 04:48:19;;;;;;;4.47;4.03;;;19.80;99.90;;;;;;5125142;27;21007;-82
2023/09/03 04:50:45;;;;;;;6.80;6.10;;;19.80;99.90;;;;;;5124883;27;20450;-81
2023/09/03 04:53:13;;;;;;;8.73;5.33;;;19.80;99.90;;;;;;5109177;28;20415;-80
2023/09/03 04:55:40;;;;;;;6.33;5.70;;;19.80;99.90;;;;;;5109494;28;20187;-81
2023/09/03 04:58:06;;;;;;;6.50;5.53;;;19.80;99.90;;;;;;5109238;28;20407;-81
2023/09/03 05:00:32;;;;;;;5.90;5.30;;;19.90;99.90;;;;;;5125075;27;20442;-78
2023/09/03 05:02:58;;;;;;;5.37;4.93;;;19.90;99.90;;;;;;5108938;28;20537;-78
2023/09/03 05:05:24;;;;;;;11.80;5.10;;;19.90;99.90;;;;;;5109303;28;20428;-82
2023/09/03 05:07:50;;;;;;;6.30;5.80;;;19.90;99.90;;;;;;5109166;28;20213;-77
2023/09/03 05:10:16;;;;;;;6.30;5.70;;;19.90;99.90;;;;;;5124866;27;20234;-81
2023/09/03 05:12:42;;;;;;;6.80;6.10;;;20.00;99.90;;;;;;5125167;27;20972;-78
2023/09/03 05:15:09;;;;;;;5.93;5.33;;;20.00;99.90;;;;;;5108150;28;20440;-78
2023/09/03 05:17:35;;;;;;;6.17;5.57;;;20.00;99.90;;;;;;5124390;27;20184;-81
2023/09/03 05:20:00;;;;;;;5.40;4.90;;;20.00;99.90;;;;;;5108787;28;21055;-78
2023/09/03 05:22:26;;;;;;;7.83;7.00;;;20.10;99.90;;;;;;5108579;28;20175;-78
2023/09/03 05:24:52;;;;;;;5.43;4.93;;;20.20;99.90;;;;;;5124497;27;20223;-81
2023/09/03 05:27:17;;;;;;;5.57;5.07;;;20.20;99.90;;;;;;5124353;27;20545;-78
2023/09/03 05:29:43;;;;;;;6.03;5.43;;;20.20;99.90;;;;;;5108335;28;20515;-78
2023/09/03 05:32:09;;;;;;;5.10;4.70;;;20.30;99.90;;;;;;5108288;28;20217;-78
2023/09/03 05:34:34;;;;;;;5.80;5.30;;;20.30;99.90;;;;;;5108834;28;20236;-82
2023/09/03 05:37:01;;;;;;;5.30;4.80;;;20.40;99.90;;;;;;5108122;28;20260;-82
2023/09/03 05:39:26;;;;;;;5.30;4.80;;;20.40;99.90;;;;;;5108480;28;20586;-82
2023/09/03 05:41:52;;;;;;;5.73;5.23;;;20.50;99.90;;;;;;5108476;28;20457;-78
2023/09/03 05:44:18;;;;;;;5.20;4.70;;;20.50;99.90;;;;;;5108134;28;20216;-78
2023/09/03 05:46:43;;;;;;;6.17;5.53;;;20.50;99.90;;;;;;5123732;27;20176;-78
2023/09/03 05:49:09;;;;;;;6.43;5.83;;;20.50;99.90;;;;;;5107282;28;20194;-78
2023/09/03 05:51:35;;;;;;;6.03;5.43;;;20.60;99.90;;;;;;5123947;27;20195;-81
2023/09/03 05:54:00;;;;;;;6.80;6.17;;;20.60;99.90;;;;;;5108085;28;20172;-78
2023/09/03 05:56:26;;;;;;;6.40;5.80;;;20.60;99.90;;;;;;5124033;27;20713;-78
2023/09/03 05:58:53;;;;;;;5.93;5.33;;;20.70;99.90;;;;;;5123991;27;20233;-82
2023/09/03 06:01:18;;;;;;;7.20;5.50;;;20.70;99.90;;;;;;5122974;27;20745;-78
2023/09/03 06:03:44;;;;;;;6.07;5.57;;;20.70;99.90;;;;;;5106667;28;20752;-82
2023/09/03 06:06:11;;;;;;;6.33;5.73;;;20.80;99.90;;;;;;5105992;28;20482;-78
2023/09/03 06:08:37;;;;;;;7.53;6.83;;;20.80;99.90;;;;;;5122106;27;20330;-82
2023/09/03 06:11:04;;;;;;;7.50;6.00;;;20.90;99.90;;;;;;5121864;27;20714;-79
2023/09/03 06:13:31;;;;;;;8.20;6.20;;;20.90;99.90;;;;;;5106617;28;20923;-78
2023/09/03 06:15:57;;;;;;;6.97;6.27;;;20.90;99.90;;;;;;5121149;27;20447;-82
2023/09/03 06:18:24;;;;;;;6.33;5.70;;;21.00;99.90;;;;;;5107435;28;20751;-78
2023/09/03 06:20:50;;;;;;;6.90;6.20;;;21.10;99.90;;;;;;5107516;28;20470;-81
2023/09/03 06:23:18;;;;;;;6.43;5.93;;;21.20;99.90;;;;;;5123325;27;20494;-78
2023/09/03 06:25:45;;;;;;;7.30;6.50;;;21.20;99.90;;;;;;5123504;27;20448;-79
2023/09/03 06:28:10;;;;;;;6.13;5.63;;;21.30;99.90;;;;;;5107489;28;20829;-82
2023/09/03 06:30:36;;;;;;;7.63;6.87;;;21.30;99.90;;;;;;5122841;27;20440;-82
2023/09/03 06:33:02;;;;;;;7.17;6.57;;;21.40;99.90;;;;;;5106996;28;20544;-81
2023/09/03 06:35:27;;;;;;;6.87;6.17;;;21.40;99.90;;;;;;5107261;28;20203;-79
2023/09/03 06:37:55;;;;;;;8.60;6.20;;;21.40;99.90;;;;;;5123088;27;20229;-81
2023/09/03 06:40:21;;;;;;;6.07;5.57;;;21.50;99.90;;;;;;5107438;28;20211;-78
2023/09/03 06:42:47;;;;;;;6.70;6.10;;;21.60;99.90;;;;;;5122523;27;20789;-81
2023/09/03 06:45:13;;;;;;;7.20;6.17;;;21.60;99.90;;;;;;5122480;27;20471;-82
2023/09/03 06:47:39;;;;;;;6.67;6.07;;;21.70;99.90;;;;;;5107386;27;20205;-79
2023/09/03 06:50:06;;;;;;;7.67;6.83;;;21.80;99.90;;;;;;5122644;27;20547;-78
2023/09/03 06:52:32;;;;;;;6.30;5.77;;;21.80;99.90;;;;;;5123033;27;20188;-81
2023/09/03 06:54:58;;;;;;;7.27;6.50;;;21.90;99.90;;;;;;5122853;27;20806;-79
2023/09/03 06:57:24;;;;;;;6.50;5.90;;;22.00;99.90;;;;;;5106886;27;20285;-78
2023/09/03 06:59:50;;;;;;;6.87;6.23;;;22.10;99.90;;;;;;5107018;28;20188;-78
2023/09/03 07:02:15;;;;;;;7.33;6.30;;;22.20;99.90;;;;;;5122583;27;20408;-78
2023/09/03 07:04:41;;;;;;;7.27;6.57;;;22.30;99.90;;;;;;5122654;27;20482;-78
2023/09/03 07:07:08;;;;;;;6.90;6.20;;;22.40;99.90;;;;;;5122279;27;20641;-80
2023/09/03 07:09:34;;;;;;;6.73;6.13;;;22.50;99.90;;;;;;5122771;27;20226;-82
2023/09/03 07:12:03;;;;;;;7.20;6.60;;;22.60;99.90;;;;;;5106603;28;20418;-80
2023/09/03 07:14:33;;;;;;;7.93;7.23;;;22.70;99.90;;;;;;5106609;28;20174;-82
2023/09/03 07:17:00;;;;;;;6.23;5.63;;;22.80;99.90;;;;;;5106366;28;20415;-78
2023/09/03 07:19:26;;;;;;;6.43;5.87;;;22.90;99.90;;;;;;5120464;27;20478;-82
2023/09/03 07:21:52;;;;;;;6.87;6.00;;;23.00;99.90;;;;;;5106442;28;20419;-78
2023/09/03 07:24:18;;;;;;;7.77;6.47;;;23.10;99.90;;;;;;5106356;28;20462;-78
2023/09/03 07:26:43;;;;;;;7.40;6.73;;;23.10;99.90;;;;;;5122262;27;20646;-79
2023/09/03 07:29:09;;;;;;;6.40;5.80;;;23.20;99.90;;;;;;5122331;27;20280;-82
2023/09/03 07:31:40;;;;;;;7.67;6.13;;;23.30;99.90;;;;;;5106227;28;20198;-81
2023/09/03 07:34:07;;;;;;;6.97;6.17;;;23.40;99.90;;;;;;5106066;28;20670;-78
2023/09/03 07:36:33;;;;;;;6.60;5.90;;;23.50;99.90;;;;;;5106580;28;20961;-81
2023/09/03 07:38:58;;;;;;;6.50;5.90;;;23.50;99.90;;;;;;5121932;27;20430;-81
2023/09/03 07:41:24;;;;;;;7.37;6.67;;;23.60;99.90;;;;;;5121863;27;20206;-78
2023/09/03 07:43:51;;;;;;;6.13;5.63;;;23.60;99.90;;;;;;5106134;28;20293;-82
2023/09/03 07:46:17;;;;;;;6.73;6.13;;;23.70;99.90;;;;;;5121652;27;20207;-78
2023/09/03 07:48:43;;;;;;;8.53;5.77;;;23.70;99.90;;;;;;5106115;28;20405;-81
2023/09/03 07:51:09;;;;;;;7.50;6.77;;;23.80;99.90;;;;;;5103389;28;20740;-81
2023/09/03 07:53:34;;;;;;;5.97;5.40;;;23.90;99.90;;;;;;5103116;28;20545;-81
2023/09/03 07:56:00;;;;;;;7.10;6.43;;;24.00;99.90;;;;;;5105368;28;20276;-79
2023/09/03 07:58:26;;;;;;;6.50;5.90;;;24.10;99.90;;;;;;5102693;28;20190;-78
2023/09/03 08:00:52;;;;;;;6.03;5.53;;;24.20;99.90;;;;;;5107812;28;20208;-79
2023/09/03 08:03:18;;;;;;;6.73;6.13;;;24.20;99.90;;;;;;5110243;27;20647;-79
2023/09/03 08:05:44;;;;;;;6.20;5.70;;;24.30;99.90;;;;;;5104202;28;20494;-78
2023/09/03 08:08:09;;;;;;;6.10;5.50;;;24.40;99.90;;;;;;5103196;28;20419;-79
2023/09/03 08:10:35;;;;;;;7.00;6.40;;;24.50;99.90;;;;;;5105422;28;20198;-82
2023/09/03 08:13:01;;;;;;;6.77;6.17;;;24.60;99.90;;;;;;5105986;28;20199;-78
2023/09/03 08:15:26;;;;;;;6.80;6.20;;;24.60;99.90;;;;;;5084683;28;20222;-79
2023/09/03 08:17:52;;;;;;;6.60;6.00;;;24.70;99.90;;;;;;5104343;28;20271;-78
2023/09/03 08:20:19;;;;;;;6.33;5.83;;;24.80;99.90;;;;;;5103736;28;20234;-79
2023/09/03 08:22:45;;;;;;;6.23;5.63;;;24.90;99.90;;;;;;5120653;28;20325;-82
2023/09/03 08:25:11;;;;;;;5.97;5.50;;;25.00;99.90;;;;;;5105075;28;20631;-78
2023/09/03 08:27:38;;;;;;;6.43;5.90;;;25.10;99.90;;;;;;5104023;28;20176;-79
2023/09/03 08:30:04;;;;;;;5.90;5.40;;;25.20;99.90;;;;;;5102510;28;20421;-82
2023/09/03 08:32:30;;;;;;;6.50;5.90;;;25.30;99.90;;;;;;5105535;28;20396;-79
2023/09/03 08:34:56;;;;;;;6.97;6.37;;;25.40;99.90;;;;;;5104498;28;20484;-81
2023/09/03 08:37:26;;;;;;;6.20;5.70;;;25.40;99.90;;;;;;5104111;28;20180;-80
2023/09/03 08:39:52;;;;;;;8.10;5.97;;;25.40;99.90;;;;;;5106055;28;20344;-82
2023/09/03 08:42:17;;;;;;;6.20;5.70;;;25.40;99.90;;;;;;5104454;28;20909;-78
2023/09/03 08:44:50;;;;;;;5.60;5.10;;;25.30;99.90;;;;;;5103811;28;20486;-81
2023/09/03 08:47:17;;;;;;;6.47;5.97;;;25.30;99.90;;;;;;5102369;28;20655;-79
2023/09/03 08:49:44;;;;;;;7.43;6.73;;;25.20;99.90;;;;;;5101326;28;20956;-81
2023/09/03 08:52:11;;;;;;;6.27;5.67;;;25.10;99.90;;;;;;5102043;28;20714;-82
2023/09/03 08:54:38;;;;;;;6.50;5.90;;;25.10;99.90;;;;;;5102265;28;20949;-82
2023/09/03 08:57:05;;;;;;;5.83;5.33;;;25.10;99.90;;;;;;5102139;28;20911;-79
2023/09/03 08:59:32;;;;;;;5.70;5.20;;;25.10;99.90;;;;;;5102772;28;20460;-82
2023/09/03 09:01:59;;;;;;;5.67;5.27;;;25.10;99.90;;;;;;5103892;28;20412;-78
2023/09/03 09:04:30;;;;;;;5.27;4.87;;;25.20;99.90;;;;;;5104835;28;20979;-82
2023/09/03 09:06:58;;;;;;;4.90;4.50;;;25.20;99.90;;;;;;5108957;28;20415;-79
2023/09/03 09:09:26;;;;;;;4.90;4.47;;;25.20;99.90;;;;;;5109194;27;20408;-82
2023/09/03 09:12:10;;;;;;;4.93;4.23;;;25.20;99.90;;;;;;5108948;28;20712;-78
2023/09/03 09:14:52;;;;;;;3.90;3.60;;;25.20;99.90;;;;;;5109044;28;20435;-82
2023/09/03 09:17:18;;;;;;;4.10;3.70;;;25.20;99.90;;;;;;5107214;28;20441;-82
2023/09/03 09:19:44;;;;;;;4.40;4.00;;;25.30;99.90;;;;;;5108744;28;21152;-79
2023/09/03 09:22:10;;;;;;;3.97;3.67;;;25.30;99.90;;;;;;5106404;28;20207;-78
2023/09/03 09:24:44;;;;;;;3.87;3.57;;;25.40;99.90;;;;;;5107161;28;20296;-81
2023/09/03 09:27:18;;;;;;;4.80;4.40;;;25.40;99.90;;;;;;5108450;28;20460;-82
2023/09/03 09:29:44;;;;;;;4.43;3.87;;;25.50;99.90;;;;;;5109079;28;20505;-79
2023/09/03 09:32:22;;;;;;;3.90;3.60;;;25.60;99.90;;;;;;5107138;28;20449;-81
2023/09/03 09:34:48;;;;;;;4.20;3.83;;;25.60;99.90;;;;;;5107374;28;20799;-78
2023/09/03 09:37:14;;;;;;;3.60;3.40;;;25.70;99.90;;;;;;5108717;28;20411;-80
2023/09/03 09:39:48;;;;;;;3.80;3.50;;;25.80;99.90;;;;;;5108911;27;20506;-79
2023/09/03 09:42:18;;;;;;;3.50;3.30;;;25.90;99.90;;;;;;5106619;28;20753;-82
2023/09/03 09:44:53;;;;;;;4.30;3.90;;;26.00;99.90;;;;;;5107160;28;21004;-79
2023/09/03 09:47:20;;;;;;;3.53;3.23;;;26.10;99.90;;;;;;5106601;28;20478;-79
2023/09/03 09:49:47;;;;;;;3.63;3.33;;;26.10;99.90;;;;;;5108498;28;20485;-82
2023/09/03 09:52:16;;;;;;;2.90;2.70;;;26.10;99.90;;;;;;5108151;28;20400;-82
2023/09/03 09:54:43;;;;;;;3.67;3.37;;;26.20;99.90;;;;;;5108545;28;20432;-82
2023/09/03 09:57:21;;;;;;;4.20;3.80;;;26.20;99.90;;;;;;5108177;28;20450;-81
2023/09/03 10:00:01;;;;;;;4.27;3.90;;;26.30;99.90;;;;;;5107069;28;20487;-79
2023/09/03 10:02:27;;;;;;;3.50;3.20;;;26.40;99.90;;;;;;5106556;28;20465;-79
2023/09/03 10:04:54;;;;;;;4.17;3.87;;;26.40;99.90;;;;;;5106643;28;21080;-78
2023/09/03 10:07:20;;;;;;;3.40;3.20;;;26.50;99.90;;;;;;5106703;28;20779;-81
2023/09/03 10:09:46;;;;;;;3.57;3.27;;;26.60;99.90;;;;;;5108259;28;20600;-79
2023/09/03 10:12:13;;;;;;;3.60;3.30;;;26.60;99.90;;;;;;5106232;28;20785;-79
2023/09/03 10:14:39;;;;;;;5.23;3.30;;;26.70;99.90;;;;;;5106701;28;20833;-81
2023/09/03 10:17:10;;;;;;;3.60;3.30;;;26.80;99.90;;;;;;5104793;28;20423;-78
2023/09/03 10:19:55;;;;;;;2.80;2.60;;;26.80;99.90;;;;;;5106069;28;20484;-82
2023/09/03 10:22:23;;;;;;;2.90;2.70;;;26.90;99.90;;;;;;5105215;28;20420;-79
2023/09/03 10:24:59;;;;;;;3.13;2.83;;;26.90;99.90;;;;;;5107578;28;20503;-82
2023/09/03 10:27:30;;;;;;;2.83;2.63;;;27.00;99.90;;;;;;5105995;28;20609;-81
2023/09/03 10:30:01;;;;;;;3.10;2.70;;;27.00;99.90;;;;;;5107860;28;20523;-79
2023/09/03 10:32:28;;;;;;;3.00;2.80;;;27.00;99.90;;;;;;5107356;27;20407;-82
2023/09/03 10:34:53;;;;;;;2.83;2.63;;;27.10;99.90;;;;;;5107571;28;20466;-79
2023/09/03 10:37:22;;;;;;;3.43;2.60;;;27.10;99.90;;;;;;5106002;28;20621;-81
2023/09/03 10:39:48;;;;;;;2.50;2.30;;;27.20;99.90;;;;;;5107687;28;20555;-81
2023/09/03 10:42:19;;;;;;;2.43;2.23;;;27.10;99.90;;;;;;5107378;28;20404;-78
2023/09/03 10:44:50;;;;;;;2.80;2.60;;;27.10;99.90;;;;;;5105792;28;20225;-79
2023/09/03 10:47:18;;;;;;;2.70;2.50;;;27.20;99.90;;;;;;5105597;28;20407;-79
2023/09/03 10:49:45;;;;;;;4.20;2.67;;;27.20;99.90;;;;;;5106180;28;20619;-79
2023/09/03 10:52:26;;;;;;;2.73;2.53;;;27.20;99.90;;;;;;5105680;28;20424;-79
2023/09/03 10:55:20;;;;;;;3.17;2.63;;;27.20;99.90;;;;;;5106986;28;20713;-79
2023/09/03 10:57:48;;;;;;;2.50;2.37;;;27.30;99.90;;;;;;5105847;28;20788;-80
2023/09/03 11:00:16;;;;;;;2.23;2.03;;;27.30;99.90;;;;;;5105319;28;20448;-79
2023/09/03 11:02:42;;;;;;;3.03;2.50;;;27.30;99.90;;;;;;5107161;28;20409;-79
2023/09/03 11:05:11;;;;;;;2.70;2.50;;;27.40;99.90;;;;;;5105231;28;20479;-79
2023/09/03 11:07:36;;;;;;;2.10;2.00;;;27.40;99.90;;;;;;5105465;28;20425;-78
2023/09/03 11:10:21;;;;;;;1.90;1.80;;;27.50;99.90;;;;;;5106914;28;20467;-79
2023/09/03 11:12:50;;;;;;;2.07;1.90;;;27.50;99.90;;;;;;5105331;28;20175;-79
2023/09/03 11:15:16;;;;;;;2.17;2.07;;;27.60;99.90;;;;;;5104793;28;20492;-81
2023/09/03 11:17:53;;;;;;;2.80;2.60;;;27.70;99.90;;;;;;5105639;28;20411;-81
2023/09/03 11:20:30;;;;;;;2.70;2.30;;;27.70;99.90;;;;;;5118251;27;21211;-79
2023/09/03 11:22:57;;;;;;;2.33;2.23;;;27.70;99.90;;;;;;5108866;27;20470;-80
2023/09/03 11:25:36;;;;;;;2.93;2.47;;;27.80;99.90;;;;;;5104246;28;20481;-81
2023/09/03 11:28:04;;;;;;;2.20;2.10;;;27.80;99.90;;;;;;5104553;28;20845;-82
2023/09/03 11:30:29;;;;;;;2.57;2.37;;;27.80;99.90;;;;;;5105161;28;20840;-81
2023/09/03 11:32:55;;;;;;;2.47;2.27;;;27.80;99.90;;;;;;5106122;28;20442;-81
2023/09/03 11:35:22;;;;;;;2.80;2.50;;;27.80;99.90;;;;;;5104676;28;20436;-79
2023/09/03 11:37:49;;;;;;;2.83;2.60;;;27.80;99.90;;;;;;5106248;28;20404;-82
2023/09/03 11:40:16;;;;;;;2.20;2.10;;;27.80;99.90;;;;;;5106446;28;20433;-81
2023/09/03 11:42:50;;;;;;;2.63;2.43;;;27.80;99.90;;;;;;5106429;28;20429;-79
2023/09/03 11:45:16;;;;;;;2.80;2.60;;;27.80;99.90;;;;;;5104344;28;20526;-81
2023/09/03 11:47:49;;;;;;;2.80;2.60;;;27.70;99.90;;;;;;5105097;28;20933;-81
2023/09/03 11:50:16;;;;;;;2.97;2.77;;;27.70;99.90;;;;;;5106319;28;20536;-79
2023/09/03 11:52:55;;;;;;;2.70;2.50;;;27.70;99.90;;;;;;5104597;28;20503;-81
2023/09/03 11:55:27;;;;;;;2.70;2.50;;;27.60;99.90;;;;;;5105795;28;20425;-82
2023/09/03 11:57:54;;;;;;;2.93;2.70;;;27.60;99.90;;;;;;5105862;28;20851;-79
2023/09/03 12:00:20;;;;;;;2.50;2.37;;;27.60;99.90;;;;;;5106126;28;20429;-81
2023/09/03 12:02:47;;;;;;;2.50;2.30;;;27.50;99.90;;;;;;5104854;28;20801;-82
2023/09/03 12:05:12;;;;;;;3.00;2.80;;;27.50;99.90;;;;;;5104389;28;20209;-80
2023/09/03 12:07:38;;;;;;;2.87;2.67;;;27.40;99.90;;;;;;5104647;28;20820;-79
2023/09/03 12:10:05;;;;;;;3.00;2.80;;;27.40;99.90;;;;;;5101697;28;20229;-78
2023/09/03 12:12:30;;;;;;;2.50;2.30;;;27.40;99.90;;;;;;5102703;28;20753;-79
2023/09/03 12:14:56;;;;;;;3.20;3.00;;;27.40;99.90;;;;;;5102673;28;20494;-82
2023/09/03 12:17:28;;;;;;;2.70;2.50;;;27.50;99.90;;;;;;5104118;28;20585;-80
2023/09/03 12:19:54;;;;;;;3.07;2.87;;;27.40;99.90;;;;;;5104063;28;20269;-81
2023/09/03 12:22:22;;;;;;;1.90;1.80;;;27.40;99.90;;;;;;5102184;28;20484;-79
2023/09/03 12:24:49;;;;;;;3.40;2.40;;;27.40;99.90;;;;;;5104318;28;20740;-81
2023/09/03 12:27:15;;;;;;;2.93;2.60;;;27.40;99.90;;;;;;5102492;28;20410;-81
2023/09/03 12:29:41;;;;;;;2.77;2.57;;;27.40;99.90;;;;;;5101848;28;21053;-81
2023/09/03 12:32:09;;;;;;;3.13;2.57;;;27.40;99.90;;;;;;5103724;28;20424;-81
2023/09/03 12:34:37;;;;;;;3.00;2.70;;;27.40;99.90;;;;;;5104068;28;20507;-81
2023/09/03 12:37:04;;;;;;;2.60;2.40;;;27.40;99.90;;;;;;5102294;28;20851;-81
2023/09/03 12:39:36;;;;;;;2.90;2.70;;;27.30;99.90;;;;;;5104082;28;20424;-81
2023/09/03 12:42:04;;;;;;;2.77;2.50;;;27.30;99.90;;;;;;5108414;28;20534;-82
2023/09/03 12:44:30;;;;;;;3.20;2.90;;;27.20;99.90;;;;;;5109482;28;21072;-79
2023/09/03 12:46:57;;;;;;;3.17;2.87;;;27.30;99.90;;;;;;5108101;28;20420;-79
2023/09/03 12:49:23;;;;;;;2.60;2.40;;;27.30;99.90;;;;;;5108094;28;20187;-82
2023/09/03 12:51:49;;;;;;;2.43;2.33;;;27.30;99.90;;;;;;5107988;27;20489;-81